Flight Track Log - Related Links

Times and Time Zones

All times are in EDT time to prevent confusion due to time zone crossing. See the GJS3649 flight status page for this flight to view local times or setup timezone preferences in your user account.

Time Position Orientation Groundspeed Altitude Reporting Facility
EDT Latitude Longitude Course Direction KTS MPH feet Rate Location/Type
Wed 06:05:37 PM 38.9333 -77.5500 243° Southwest 209 241 3,200  Level Potomac TRACON
Wed 06:06:37 PM 38.9000 -77.6333 243° Southwest 243 280 5,500 2,466 Climbing Potomac TRACON
Wed 06:08:03 PM 38.8978 -77.7708 269° West 275 316 9,200 2,245 Climbing Washington Center
Wed 06:09:04 PM 38.9108 -77.8619 280° West 280 322 11,000 1,800 Climbing Washington Center
Wed 06:10:03 PM 38.9269 -77.9906 279° West 304 350 12,800 1,750 Climbing Washington Center
Wed 06:11:04 PM 38.9453 -78.1164 281° West 338 389 14,500 1,525 Climbing Washington Center
Wed 06:12:05 PM 38.9592 -78.2450 278° West 357 411 15,900 1,339 Climbing Washington Center
Wed 06:13:05 PM 38.9644 -78.3761 273° West 370 426 17,200 1,373 Climbing Washington Center
Wed 06:14:03 PM 38.9697 -78.5153 273° West 381 438 18,600 1,576 Climbing Washington Center
Wed 06:15:03 PM 38.9744 -78.6542 273° West 386 444 20,300 1,636 Climbing Washington Center
Wed 06:16:04 PM 38.9772 -78.7933 272° West 386 444 21,900 1,475 Climbing Washington Center
Wed 06:17:05 PM 38.9817 -78.9322 272° West 386 444 23,300 1,373 Climbing Washington Center
Wed 06:18:02 PM 38.9861 -79.0714 272° West 386 444 24,600 1,160 Climbing Washington Center
Wed 06:19:04 PM 38.9881 -79.2156 271° West 396 456 25,600 934 Climbing Washington Center
Wed 06:20:04 PM 38.9919 -79.3628 272° West 407 468 26,500 1,017 Climbing Washington Center
Wed 06:21:02 PM 38.9933 -79.5097 271° West 412 474 27,600 1,008 Climbing Washington Center
Wed 06:22:03 PM 38.9992 -79.6517 273° West 431 496 28,500 885 Climbing Washington Center
Wed 06:23:04 PM 39.0022 -79.8042 272° West 431 496 29,400 885 Climbing Washington Center
Wed 06:24:05 PM 39.0067 -79.9728 272° West 431 496 30,300 908 Climbing Washington Center
Wed 06:25:03 PM 39.0072 -80.1222 270° West 431 496 31,200 1,079 Climbing Washington Center
Wed 06:26:24 PM 39.0075 -80.3192 270° West 424 488 32,800 1,091 Climbing Indianapolis Center
Wed 06:27:26 PM 39.0111 -80.4689 272° West 421 484 33,800 919 Climbing Indianapolis Center
Wed 06:28:28 PM 39.0111 -80.6164 270° West 417 480 34,700 774 Climbing Indianapolis Center
Wed 06:29:30 PM 39.0144 -80.7650 272° West 417 480 35,400 629 Climbing Indianapolis Center
Wed 06:30:32 PM 39.0542 -80.9106 289° West 436 502 36,000 290 Climbing Indianapolis Center
Wed 06:31:34 PM 39.1247 -81.0792 298° West 447 514 36,000  Level Indianapolis Center
Wed 06:32:36 PM 39.1833 -81.2211 298° West 451 519 36,000  Level Indianapolis Center
Wed 06:33:38 PM 39.2411 -81.3614 298° West 447 514 36,000  Level Indianapolis Center
Wed 06:34:40 PM 39.2983 -81.5019 298° West 446 513 36,000  Level Indianapolis Center
Wed 06:35:42 PM 39.3544 -81.6422 297° West 443 510 36,000  Level Indianapolis Center
Wed 06:36:44 PM 39.4117 -81.7825 298° West 443 510 36,000  Level Indianapolis Center
Wed 06:37:46 PM 39.4794 -81.9514 298° West 443 510 36,000  Level Indianapolis Center
Wed 06:38:48 PM 39.5350 -82.0914 297° West 440 506 36,000 97 Level Indianapolis Center
Wed 06:39:50 PM 39.5900 -82.2311 297° West 444 511 36,200 484 Climbing Indianapolis Center
Wed 06:40:52 PM 39.6456 -82.3722 297° West 438 504 37,000 387 Climbing Indianapolis Center
Wed 06:41:54 PM 39.7022 -82.5142 297° West 440 506 37,000  Level Indianapolis Center
Wed 06:42:56 PM 39.7681 -82.6828 297° West 445 512 37,000  Level Indianapolis Center
Wed 06:43:58 PM 39.8256 -82.8286 297° West 451 519 37,000 97 Level Indianapolis Center
Wed 06:45:00 PM 39.8825 -82.9758 297° West 453 521 37,200 484 Climbing Indianapolis Center
Wed 06:46:02 PM 39.9392 -83.1194 297° West 447 514 38,000 387 Climbing Indianapolis Center
Wed 06:47:04 PM 39.9961 -83.2619 298° West 443 510 38,000  Level Indianapolis Center
Wed 06:48:05 PM 40.0922 -83.4097 310° West 461 531 38,000  Level Indianapolis Center
Wed 06:49:08 PM 40.1758 -83.5350 311° West 459 528 38,000  Level Indianapolis Center
Wed 06:50:10 PM 40.2594 -83.6600 311° West 456 525 38,000  Level Indianapolis Center
Wed 06:51:12 PM 40.3425 -83.7853 311° West 453 521 38,000  Level Indianapolis Center
Wed 06:52:14 PM 40.4256 -83.9108 311° West 453 521 38,000  Level Indianapolis Center
Wed 06:53:16 PM 40.5094 -84.0361 311° West 451 519 38,000  Level Indianapolis Center
Wed 06:54:18 PM 40.5914 -84.1619 311° West 450 518 38,000  Level Indianapolis Center
Wed 06:55:20 PM 40.6872 -84.3094 311° West 453 521 38,000  Level Indianapolis Center
Wed 06:56:21 PM 40.7694 -84.4361 311° West 452 520 38,000  Level Indianapolis Center
Wed 06:57:36 PM 40.8683 -84.5858 311° West 460 529 38,000  Level Indianapolis Center
Wed 06:58:18 PM 40.9211 -84.6675 311° West 458 527 38,000  Level Chicago Center
Wed 06:59:20 PM 41.0042 -84.7975 310° West 461 531 38,000  Level Chicago Center
Wed 07:00:22 PM 41.1039 -84.9533 310° West 463 533 38,000  Level Chicago Center
Wed 07:01:24 PM 41.1875 -85.0839 310° West 464 534 38,000  Level Chicago Center
Wed 07:02:26 PM 41.2708 -85.2161 310° West 467 537 38,000  Level Chicago Center
Wed 07:03:28 PM 41.3539 -85.3503 310° West 467 537 38,000  Level Chicago Center
Wed 07:04:30 PM 41.4400 -85.4886 310° West 475 547 38,000  Level Chicago Center
Wed 07:05:32 PM 41.5264 -85.6289 309° West 479 551 38,000  Level Chicago Center
Wed 07:06:34 PM 41.6131 -85.7664 310° West 482 555 38,000  Level Chicago Center
Wed 07:07:37 PM 41.6986 -85.9033 310° West 481 554 38,000  Level Chicago Center
Wed 07:08:39 PM 41.8008 -86.0689 310° West 481 554 38,000  Level Chicago Center
Wed 07:09:41 PM 41.8867 -86.2069 310° West 483 556 38,000  Level Chicago Center
Wed 07:10:43 PM 41.9717 -86.3456 310° West 482 555 38,000  Level Chicago Center
Wed 07:11:45 PM 42.0547 -86.4839 309° West 475 547 38,000  Level Chicago Center
Wed 07:12:47 PM 42.1383 -86.6231 309° West 478 550 38,000  Level Chicago Center
Wed 07:13:49 PM 42.2403 -86.7875 310° West 477 549 38,000  Level Chicago Center
Wed 07:14:51 PM 42.3211 -86.9250 309° West 475 547 38,000  Level Chicago Center
Wed 07:15:53 PM 42.4019 -87.0608 309° West 466 536 38,000  Level Chicago Center
Wed 07:16:55 PM 42.4814 -87.1933 309° West 460 529 38,000  Level Chicago Center
Wed 07:17:58 PM 42.5614 -87.3281 309° West 463 533 38,000  Level Chicago Center
Wed 07:19:00 PM 42.6461 -87.4703 309° West 462 532 38,000  Level Chicago Center
Wed 07:20:02 PM 42.7375 -87.6300 308° West 459 528 38,000  Level Chicago Center
Wed 07:21:04 PM 42.8161 -87.7650 308° West 456 525 38,000  Level Chicago Center
Wed 07:22:06 PM 42.8939 -87.9008 308° West 453 521 38,000  Level Chicago Center
Wed 07:23:08 PM 42.9714 -88.0367 308° West 454 522 38,000  Level Chicago Center
Wed 07:24:10 PM 43.0497 -88.1722 308° West 454 522 38,000  Level Chicago Center
Wed 07:25:12 PM 43.1419 -88.3303 309° West 456 525 38,000  Level Chicago Center
Wed 07:26:14 PM 43.2211 -88.4664 309° West 452 520 38,000  Level Chicago Center
Wed 07:27:16 PM 43.3031 -88.6078 309° West 462 532 38,000  Level Chicago Center
Wed 07:28:18 PM 43.3861 -88.7486 309° West 465 535 38,000  Level Chicago Center
Wed 07:29:20 PM 43.4678 -88.8878 309° West 463 533 38,000  Level Chicago Center
Wed 07:30:23 PM 43.5492 -89.0281 309° West 465 535 38,000  Level Chicago Center
Wed 07:31:25 PM 43.6289 -89.1675 308° West 463 533 38,000  Level Chicago Center
Wed 07:32:27 PM 43.7094 -89.3089 308° West 466 536 38,000 -44 Level Chicago Center
Wed 07:33:40 PM 43.8156 -89.4958 308° West 463 533 37,900 -484 Descending Minneapolis Center
Wed 07:34:31 PM 43.8806 -89.6119 308° West 455 524 37,000 -1,221 Descending Chicago Center
Wed 07:35:33 PM 43.9550 -89.7603 305° West 468 539 35,600 -1,306 Descending Chicago Center
Wed 07:36:35 PM 44.0228 -89.9136 302° West 465 535 34,300 -774 Descending Chicago Center
Wed 07:37:37 PM 44.0894 -90.0611 302° West 454 522 34,000 -145 Descending Chicago Center
Wed 07:38:39 PM 44.1661 -90.2342 302° West 450 518 34,000  Level Chicago Center
Wed 07:39:41 PM 44.2261 -90.3678 302° West 456 525 34,000 -194 Level Chicago Center
Wed 07:40:43 PM 44.2917 -90.5164 302° West 457 526 33,600 -960 Descending Chicago Center
Wed 07:41:46 PM 44.3708 -90.6964 302° West 459 528 32,000 -1,632 Descending Chicago Center
Wed 07:42:48 PM 44.4361 -90.8458 301° West 458 527 30,200 -1,839 Descending Chicago Center
Wed 07:43:50 PM 44.5008 -90.9944 301° West 455 524 28,200 -1,935 Descending Chicago Center
Wed 07:44:52 PM 44.5647 -91.1422 301° West 450 518 26,200 -2,081 Descending Chicago Center
Wed 07:45:54 PM 44.6389 -91.3150 301° West 440 506 23,900 -2,041 Descending Chicago Center
Wed 07:47:19 PM 44.7200 -91.5058 301° West 426 490 21,200 -1,878 Descending Minneapolis Center
Wed 07:48:21 PM 44.7758 -91.6403 300° West 414 476 19,300 -1,742 Descending Minneapolis Center
Wed 07:49:23 PM 44.8325 -91.7703 302° West 403 464 17,600 -1,728 Descending Minneapolis Center
Wed 07:50:26 PM 44.8881 -91.8975 302° West 386 444 15,700 -2,016 Descending Minneapolis Center
Wed 07:51:28 PM 44.9489 -92.0458 300° West 367 422 13,400 -2,032 Descending Minneapolis Center
Wed 07:52:30 PM 44.9994 -92.1656 301° West 356 410 11,500 -1,113 Descending Minneapolis Center
Wed 07:53:32 PM 45.0450 -92.2828 299° West 344 396 11,100 -290 Descending Minneapolis Center
Wed 07:54:34 PM 45.0292 -92.4150 260° West 342 394 10,900 -48 Descending Minneapolis Center
Wed 07:55:36 PM 45.0092 -92.5453 258° West 342 394 11,000  Climbing Minneapolis Center
Wed 07:56:38 PM 44.9842 -92.7011 257° West 341 392 10,900 -48 Descending Minneapolis Center
Wed 07:57:40 PM 44.9625 -92.8314 257° West 343 395 10,900 -339 Level Minneapolis Center
Wed 07:58:42 PM 44.9428 -92.9533 257° West 321 369 10,200 -1,113 Descending Minneapolis Center
Wed 07:59:44 PM 44.9264 -93.0594 258° West 285 328 8,600 -1,200 Descending Minneapolis Center
Wed 08:00:47 PM 44.9606 -93.1547 297° West 275 316 7,700 -1,248 Descending Minneapolis Center
Wed 08:01:49 PM 45.0053 -93.2625 300° West 267 307 6,000 -1,403 Descending Minneapolis Center
Wed 08:02:51 PM 45.0381 -93.3544 297° West 265 305 4,800 -1,161 Descending Minneapolis Center
Wed 08:03:53 PM 44.9853 -93.4006 212° Southwest 262 302 3,600 -1,016 Descending Minneapolis Center
Wed 08:04:55 PM 44.9422 -93.3372 134° Southeast 223 257 2,700 -871 Descending Minneapolis Center
Wed 08:05:57 PM 44.9192 -93.2819 120° Southeast 154 177 1,800 -823 Descending Minneapolis Center
Wed 08:06:59 PM 44.8961 -93.2261 120° Southeast 137 158 1,000 -774 Descending Minneapolis Center
Wed 08:08:00 PM 44.8820 -93.2218 154° Southeast  Level Estimated
Wed 08:15:00 PM 44.8820 -93.2218 154° Southeast  Level Estimated

Login

Don't have an account? Register now (free) for customized features, flight alerts, and more!